createdAt,value
2022-10-23T00:01:26.506Z,7.82
2022-10-23T00:03:56.541Z,7.76
2022-10-23T00:06:25.891Z,7.77
2022-10-23T00:08:54.044Z,7.89
2022-10-23T00:11:25.463Z,7.77
2022-10-23T00:13:57.119Z,7.67
2022-10-23T00:16:25.427Z,7.70
2022-10-23T00:18:53.676Z,7.59
2022-10-23T00:21:22.370Z,7.29
2022-10-23T00:23:50.561Z,7.18
2022-10-23T00:26:18.903Z,6.70
2022-10-23T00:28:49.727Z,6.66
2022-10-23T00:31:19.433Z,6.77
2022-10-23T00:33:48.001Z,7.00
2022-10-23T00:36:18.258Z,6.97
2022-10-23T00:38:46.511Z,7.01
2022-10-23T00:41:17.912Z,6.97
2022-10-23T00:44:01.973Z,6.97
2022-10-23T00:46:35.663Z,6.87
2022-10-23T00:49:04.818Z,6.89
2022-10-23T00:51:36.907Z,6.63
2022-10-23T00:54:23.406Z,6.68
2022-10-23T00:56:58.111Z,6.65
2022-10-23T00:59:26.580Z,6.69
2022-10-23T01:01:56.379Z,6.72
2022-10-23T01:04:26.062Z,6.79
2022-10-23T01:07:00.737Z,6.80
2022-10-23T01:09:38.822Z,6.84
2022-10-23T01:12:15.439Z,6.50
2022-10-23T01:14:51.609Z,6.63
2022-10-23T01:17:29.412Z,6.63
2022-10-23T01:20:12.897Z,6.96
2022-10-23T01:23:00.696Z,7.01
2022-10-23T01:25:39.167Z,6.79
2022-10-23T01:28:12.646Z,6.46
2022-10-23T01:30:45.295Z,6.35
2022-10-23T01:33:19.009Z,6.39
2022-10-23T01:35:53.572Z,6.48
2022-10-23T01:38:27.071Z,6.50
2022-10-23T01:41:03.146Z,6.61
2022-10-23T01:43:38.115Z,6.76
2022-10-23T01:46:10.339Z,6.83
2022-10-23T01:48:42.150Z,6.80
2022-10-23T01:51:14.591Z,6.66
2022-10-23T01:53:45.271Z,6.65
2022-10-23T01:56:19.627Z,6.73
2022-10-23T01:58:53.432Z,6.73
2022-10-23T02:01:25.553Z,6.52
2022-10-23T02:03:56.665Z,6.34
2022-10-23T02:06:26.573Z,6.14
2022-10-23T02:08:54.777Z,6.18
2022-10-23T02:11:23.285Z,6.41
2022-10-23T02:14:00.794Z,6.34
2022-10-23T02:16:38.315Z,6.34
2022-10-23T02:19:14.925Z,6.29
2022-10-23T02:21:52.480Z,6.42
2022-10-23T02:24:24.140Z,6.39
2022-10-23T02:26:55.383Z,6.43
2022-10-23T02:29:32.049Z,6.61
2022-10-23T02:32:02.188Z,6.63
2022-10-23T02:34:30.309Z,6.63
2022-10-23T02:36:59.431Z,6.48
2022-10-23T02:39:29.469Z,6.48
2022-10-23T02:42:04.723Z,6.57
2022-10-23T02:44:56.689Z,6.70
2022-10-23T02:47:37.659Z,6.77
2022-10-23T02:50:12.965Z,6.79
2022-10-23T02:52:51.378Z,6.66
2022-10-23T02:55:31.797Z,6.72
2022-10-23T02:58:05.825Z,6.89
2022-10-23T03:00:39.067Z,6.96
2022-10-23T03:03:12.626Z,6.69
2022-10-23T03:05:44.917Z,6.77
2022-10-23T03:08:15.713Z,6.72
2022-10-23T03:10:44.164Z,6.73
2022-10-23T03:13:12.759Z,6.75
2022-10-23T03:15:46.252Z,6.75
2022-10-23T03:18:16.177Z,6.68
2022-10-23T03:20:51.673Z,6.57
2022-10-23T03:23:23.286Z,6.59
2022-10-23T03:25:51.529Z,6.79
2022-10-23T03:28:33.382Z,6.87
2022-10-23T03:31:03.319Z,6.75
2022-10-23T03:33:31.625Z,6.81
2022-10-23T03:36:08.086Z,6.94
2022-10-23T03:38:36.671Z,7.00
2022-10-23T03:41:06.384Z,7.05
2022-10-23T03:43:35.388Z,7.04
2022-10-23T03:46:09.275Z,7.10
2022-10-23T03:48:40.034Z,7.07
2022-10-23T03:51:08.356Z,7.21
2022-10-23T03:53:36.689Z,7.41
2022-10-23T03:56:05.872Z,7.44
2022-10-23T03:58:35.202Z,7.42
2022-10-23T04:01:03.375Z,7.48
2022-10-23T04:03:32.877Z,7.36
2022-10-23T04:06:01.146Z,7.25
2022-10-23T04:08:29.432Z,7.29
2022-10-23T04:10:57.800Z,7.39
2022-10-23T04:13:34.546Z,7.31
2022-10-23T04:16:03.066Z,7.34
2022-10-23T04:18:32.457Z,7.29
2022-10-23T04:21:00.689Z,7.28
2022-10-23T04:23:28.705Z,7.05
2022-10-23T04:25:58.529Z,6.97
2022-10-23T04:28:28.192Z,6.79
2022-10-23T04:30:56.366Z,6.87
2022-10-23T04:33:25.153Z,7.03
2022-10-23T04:35:54.968Z,6.93
2022-10-23T04:38:23.374Z,6.81
2022-10-23T04:40:52.076Z,6.61
2022-10-23T04:43:23.713Z,6.13
2022-10-23T04:45:52.389Z,6.10
2022-10-23T04:48:25.579Z,5.98
2022-10-23T04:51:23.060Z,5.87
2022-10-23T04:54:02.544Z,6.10
2022-10-23T04:56:57.136Z,6.17
2022-10-23T04:59:26.341Z,6.25
2022-10-23T05:01:54.348Z,6.28
2022-10-23T05:04:24.858Z,6.45
2022-10-23T05:07:12.891Z,6.50
2022-10-23T05:09:48.902Z,6.57
2022-10-23T05:12:35.187Z,6.35
2022-10-23T05:15:05.652Z,6.13
2022-10-23T05:17:37.733Z,6.14
2022-10-23T05:20:12.720Z,6.25
2022-10-23T05:22:46.106Z,6.25
2022-10-23T05:25:17.438Z,6.17
2022-10-23T05:27:51.188Z,6.11
2022-10-23T05:30:19.447Z,6.07
2022-10-23T05:32:50.912Z,6.03
2022-10-23T05:35:24.560Z,5.86
2022-10-23T05:37:56.523Z,5.81
2022-10-23T05:40:27.237Z,5.80
2022-10-23T05:43:01.218Z,5.83
2022-10-23T05:45:44.295Z,5.91
2022-10-23T05:48:35.794Z,6.03
2022-10-23T05:51:24.625Z,5.86
2022-10-23T05:54:09.707Z,5.84
2022-10-23T05:57:10.356Z,6.03
2022-10-23T05:59:48.688Z,6.07
2022-10-23T06:02:29.227Z,6.21
2022-10-23T06:05:05.600Z,6.22
2022-10-23T06:07:59.993Z,6.34
2022-10-23T06:10:29.777Z,6.38
2022-10-23T06:13:00.953Z,6.43
2022-10-23T06:15:30.405Z,6.54
2022-10-23T06:18:03.310Z,6.56
2022-10-23T06:20:37.373Z,6.54
2022-10-23T06:23:11.474Z,6.66
2022-10-23T06:26:00.028Z,6.72
2022-10-23T06:28:37.333Z,6.76
2022-10-23T06:31:07.057Z,6.81
2022-10-23T06:33:35.666Z,6.90
2022-10-23T06:36:08.375Z,6.94
2022-10-23T06:38:37.631Z,7.04
2022-10-23T06:41:09.433Z,7.11
2022-10-23T06:43:40.056Z,7.28
2022-10-23T06:46:37.426Z,7.55
2022-10-23T06:49:24.593Z,7.75
2022-10-23T06:51:54.563Z,7.79
2022-10-23T06:54:24.463Z,7.84
2022-10-23T06:56:58.556Z,7.94
2022-10-23T06:59:40.422Z,8.15
2022-10-23T07:02:10.687Z,8.18
2022-10-23T07:04:41.250Z,8.15
2022-10-23T07:07:15.955Z,8.23
2022-10-23T07:09:47.622Z,8.28
2022-10-23T07:12:17.168Z,8.30
2022-10-23T07:14:51.927Z,8.41
2022-10-23T07:17:20.062Z,8.53
2022-10-23T07:19:53.026Z,8.52
2022-10-23T07:22:21.141Z,8.55
2022-10-23T07:24:55.379Z,8.58
2022-10-23T07:27:30.958Z,8.63
2022-10-23T07:30:02.669Z,8.58
2022-10-23T07:32:36.246Z,8.72
2022-10-23T07:37:52.292Z,8.96
2022-10-23T07:40:21.916Z,9.03
2022-10-23T07:42:54.192Z,9.00
2022-10-23T07:45:25.150Z,9.08
2022-10-23T07:47:54.318Z,9.21
2022-10-23T07:50:52.145Z,9.32
2022-10-23T07:53:23.358Z,9.45
2022-10-23T07:55:57.173Z,9.51
2022-10-23T07:58:29.216Z,9.55
2022-10-23T08:01:18.072Z,9.66
2022-10-23T08:03:46.828Z,9.72
2022-10-23T08:06:15.215Z,9.78
2022-10-23T08:11:15.488Z,9.89
2022-10-23T08:13:52.281Z,9.90
2022-10-23T08:16:22.550Z,10.24
2022-10-23T08:19:13.979Z,10.18
2022-10-23T08:21:43.420Z,10.40
2022-10-23T08:24:14.033Z,10.52
2022-10-23T08:26:45.589Z,10.62
2022-10-23T08:29:16.853Z,10.45
2022-10-23T08:31:45.157Z,10.51
2022-10-23T08:34:39.981Z,10.82
2022-10-23T08:37:09.564Z,10.96
2022-10-23T08:39:37.795Z,11.12
2022-10-23T08:42:21.701Z,11.26
2022-10-23T08:45:00.570Z,11.36
2022-10-23T08:47:34.999Z,11.55
2022-10-23T08:50:27.084Z,11.74
2022-10-23T08:53:01.544Z,11.89
2022-10-23T08:55:39.669Z,12.29
2022-10-23T08:58:15.593Z,12.57
2022-10-23T09:00:47.426Z,12.64
2022-10-23T09:03:17.605Z,12.94
2022-10-23T09:05:57.871Z,13.06
2022-10-23T09:08:39.606Z,13.32
2022-10-23T09:11:17.371Z,13.49
2022-10-23T09:14:27.798Z,13.82
2022-10-23T09:17:11.779Z,14.02
2022-10-23T09:19:40.353Z,13.94
2022-10-23T09:22:10.805Z,14.11
2022-10-23T09:24:39.017Z,14.35
2022-10-23T09:27:07.192Z,14.43
2022-10-23T09:29:36.985Z,14.53
2022-10-23T09:32:08.515Z,14.80
2022-10-23T09:34:37.113Z,14.70
2022-10-23T09:37:23.737Z,15.12
2022-10-23T09:40:03.912Z,15.38
2022-10-23T09:42:32.116Z,15.35
2022-10-23T09:45:01.854Z,15.80
2022-10-23T09:47:32.135Z,15.76
2022-10-23T09:50:00.268Z,16.17
2022-10-23T09:52:36.526Z,16.44
2022-10-23T09:55:23.133Z,16.36
2022-10-23T09:57:52.147Z,16.72
2022-10-23T10:00:23.302Z,16.77
2022-10-23T10:03:00.839Z,16.92
2022-10-23T10:05:45.859Z,16.92
2022-10-23T10:08:26.626Z,16.94
2022-10-23T10:11:02.268Z,17.26
2022-10-23T10:13:47.225Z,17.51
2022-10-23T10:16:22.413Z,17.72
2022-10-23T10:19:02.554Z,17.47
2022-10-23T10:21:37.909Z,17.57
2022-10-23T10:24:11.280Z,17.54
2022-10-23T10:26:45.955Z,17.86
2022-10-23T10:29:26.097Z,18.16
2022-10-23T10:32:06.304Z,18.14
2022-10-23T10:34:45.259Z,18.30
2022-10-23T10:37:22.712Z,18.09
2022-10-23T10:40:01.646Z,18.51
2022-10-23T10:42:50.811Z,18.89
2022-10-23T10:45:27.052Z,18.87
2022-10-23T10:48:22.401Z,19.02
2022-10-23T10:51:25.456Z,18.98
2022-10-23T10:54:18.788Z,19.23
2022-10-23T10:56:49.591Z,19.38
2022-10-23T10:59:24.503Z,19.43
2022-10-23T11:01:58.125Z,19.23
2022-10-23T11:04:42.342Z,19.23
2022-10-23T11:07:18.881Z,19.37
2022-10-23T11:09:48.051Z,19.43
2022-10-23T11:12:19.486Z,19.24
2022-10-23T11:14:48.841Z,19.00
2022-10-23T11:17:20.566Z,19.00
2022-10-23T11:19:55.090Z,18.96
2022-10-23T11:22:30.309Z,18.92
2022-10-23T11:25:35.179Z,18.81
2022-10-23T11:28:19.735Z,18.62
2022-10-23T11:31:10.828Z,18.96
2022-10-23T11:34:14.876Z,18.38
2022-10-23T11:36:47.137Z,18.07
2022-10-23T11:39:32.854Z,18.57
2022-10-23T11:42:15.891Z,18.76
2022-10-23T11:44:50.606Z,18.87
2022-10-23T11:47:38.876Z,18.87
2022-10-23T11:50:25.649Z,19.09
2022-10-23T11:53:12.758Z,19.23
2022-10-23T11:55:58.607Z,19.23
2022-10-23T11:58:32.262Z,19.15
2022-10-23T12:01:07.542Z,19.28
2022-10-23T12:03:42.689Z,19.43
2022-10-23T12:06:23.842Z,19.20
2022-10-23T12:08:55.941Z,18.94
2022-10-23T12:11:41.401Z,18.87
2022-10-23T12:14:33.118Z,18.54
2022-10-23T12:17:01.737Z,18.30
2022-10-23T12:19:45.611Z,18.02
2022-10-23T12:22:13.834Z,18.10
2022-10-23T12:24:56.880Z,18.30
2022-10-23T12:27:34.419Z,18.23
2022-10-23T12:30:28.209Z,18.09
2022-10-23T12:33:09.370Z,18.06
2022-10-23T12:36:12.786Z,17.68
2022-10-23T12:38:46.886Z,17.24
2022-10-23T12:41:17.817Z,17.32
2022-10-23T12:43:58.652Z,17.34
2022-10-23T12:46:36.397Z,17.32
2022-10-23T12:49:17.674Z,17.13
2022-10-23T12:51:49.004Z,17.10
2022-10-23T12:54:20.175Z,17.02
2022-10-23T12:56:49.870Z,17.18
2022-10-23T12:59:22.534Z,17.23
2022-10-23T13:01:52.946Z,17.18
2022-10-23T13:04:30.724Z,17.13
2022-10-23T13:07:01.985Z,17.09
2022-10-23T13:09:34.539Z,17.16
2022-10-23T13:12:31.652Z,16.99
2022-10-23T13:15:14.952Z,17.00
2022-10-23T13:17:49.660Z,17.00
